createdAt,value
2018-01-14T00:00:16.106Z,68.85
2018-01-14T00:01:16.366Z,68.66
2018-01-14T00:02:16.100Z,68.85
2018-01-14T00:03:16.418Z,68.76
2018-01-14T00:04:16.124Z,68.85
2018-01-14T00:05:16.152Z,69.04
2018-01-14T00:06:16.195Z,68.95
2018-01-14T00:07:16.174Z,68.29
2018-01-14T00:08:16.188Z,68.48
2018-01-14T00:09:16.459Z,68.19
2018-01-14T00:10:16.471Z,68.38
2018-01-14T00:11:16.513Z,68.29
2018-01-14T00:12:16.253Z,68.29
2018-01-14T00:13:16.530Z,68.38
2018-01-14T00:14:16.234Z,68.29
2018-01-14T00:15:16.604Z,68.29
2018-01-14T00:16:16.319Z,68.1
2018-01-14T00:17:16.543Z,68.29
2018-01-14T00:18:16.543Z,68.29
2018-01-14T00:19:16.596Z,68.29
2018-01-14T00:20:16.560Z,68.29
2018-01-14T00:21:16.617Z,68.29
2018-01-14T00:22:16.624Z,68.57
2018-01-14T00:23:16.349Z,68.38
2018-01-14T00:24:16.636Z,68.57
2018-01-14T00:25:16.351Z,68.57
2018-01-14T00:26:16.350Z,68.57
2018-01-14T00:27:16.391Z,68.38
2018-01-14T00:28:16.721Z,68.29
2018-01-14T00:29:16.702Z,68
2018-01-14T00:30:16.708Z,68.48
2018-01-14T00:31:16.717Z,68.29
2018-01-14T00:32:16.689Z,68.38
2018-01-14T00:33:16.741Z,68.1
2018-01-14T00:34:16.749Z,68.29
2018-01-14T00:35:16.732Z,68.38
2018-01-14T00:36:16.464Z,68.19
2018-01-14T00:37:16.780Z,68.66
2018-01-14T00:38:16.750Z,68.29
2018-01-14T00:39:16.761Z,68.29
2018-01-14T00:40:16.526Z,68.19
2018-01-14T00:41:16.784Z,68.48
2018-01-14T00:42:16.834Z,68.38
2018-01-14T00:43:16.844Z,68.1
2018-01-14T00:44:16.550Z,68.38
2018-01-14T00:45:16.831Z,68.95
2018-01-14T00:46:16.874Z,68.76
2018-01-14T00:47:16.875Z,69.33
2018-01-14T00:48:16.576Z,69.42
2018-01-14T00:49:16.634Z,69.04
2018-01-14T00:50:16.914Z,69.23
2018-01-14T00:51:16.882Z,68.95
2018-01-14T00:52:16.939Z,68.76
2018-01-14T00:53:16.946Z,68.95
2018-01-14T00:54:16.639Z,68.95
2018-01-14T00:55:16.649Z,68.85
2018-01-14T00:56:16.942Z,69.23
2018-01-14T00:57:16.956Z,68.66
2018-01-14T00:58:16.681Z,68.1
2018-01-14T00:59:16.977Z,68.29
2018-01-14T01:00:16.722Z,68.66
2018-01-14T01:01:17.017Z,68.1
2018-01-14T01:02:16.721Z,68.29
2018-01-14T01:03:17.006Z,68.38
2018-01-14T01:04:17.049Z,68.29
2018-01-14T01:05:16.762Z,68.38
2018-01-14T01:06:16.773Z,68.85
2018-01-14T01:07:16.788Z,68.85
2018-01-14T01:08:16.792Z,68.95
2018-01-14T01:09:17.098Z,69.13
2018-01-14T01:10:16.815Z,68.82
2018-01-14T01:11:17.118Z,68.91
2018-01-14T01:12:16.855Z,68.85
2018-01-14T01:13:17.123Z,68.66
2018-01-14T01:14:16.875Z,68.85
2018-01-14T01:16:17.139Z,69.52
2018-01-14T01:17:17.154Z,69.23
2018-01-14T01:18:17.192Z,68.95
2018-01-14T01:19:16.923Z,69.23
2018-01-14T01:20:16.905Z,68.95
2018-01-14T01:21:16.948Z,68.85
2018-01-14T01:22:16.946Z,69.04
2018-01-14T01:23:16.968Z,69.23
2018-01-14T01:24:16.961Z,69.23
2018-01-14T01:25:17.244Z,69.23
2018-01-14T01:26:16.967Z,69.71
2018-01-14T01:27:17.260Z,70.09
2018-01-14T01:28:16.987Z,69.9
2018-01-14T01:29:17.316Z,70.09
2018-01-14T01:30:17.019Z,69.71
2018-01-14T01:31:17.341Z,69.8
2018-01-14T01:32:17.346Z,69.67
2018-01-14T01:33:17.059Z,69.61
2018-01-14T01:34:17.059Z,69.8
2018-01-14T01:35:17.081Z,69.71
2018-01-14T01:36:17.381Z,69.71
2018-01-14T01:37:17.354Z,69.61
2018-01-14T01:38:17.113Z,69.61
2018-01-14T01:39:17.416Z,70.18
2018-01-14T01:40:17.111Z,70.09
2018-01-14T01:41:17.150Z,69.99
2018-01-14T01:42:17.436Z,69.67
2018-01-14T01:43:17.459Z,70.18
2018-01-14T01:44:17.184Z,69.86
2018-01-14T01:45:17.448Z,69.8
2018-01-14T01:46:17.490Z,70.09
2018-01-14T01:47:17.504Z,69.23
2018-01-14T01:48:17.513Z,69.29
2018-01-14T01:49:17.232Z,69.2
2018-01-14T01:50:17.486Z,69.52
2018-01-14T01:51:17.242Z,69.96
2018-01-14T01:52:17.243Z,70.05
2018-01-14T01:53:17.551Z,69.9
2018-01-14T01:54:17.537Z,70.05
2018-01-14T01:55:17.299Z,69.38
2018-01-14T01:56:17.578Z,69.29
2018-01-14T01:57:17.589Z,69.67
2018-01-14T01:58:17.583Z,69.67
2018-01-14T01:59:17.590Z,69.77
2018-01-14T02:00:17.325Z,69.57
2018-01-14T02:01:17.642Z,69.96
2018-01-14T02:02:17.355Z,69.99
2018-01-14T02:03:17.347Z,69.8
2018-01-14T02:04:17.629Z,69.77
2018-01-14T02:05:17.672Z,69.77
2018-01-14T02:06:17.422Z,70.24
2018-01-14T02:07:17.671Z,70.15
2018-01-14T02:08:17.417Z,70.28
2018-01-14T02:09:17.489Z,69.96
2018-01-14T02:10:17.735Z,69.96
2018-01-14T02:11:17.702Z,69.61
2018-01-14T02:12:17.436Z,69.57
2018-01-14T02:13:17.445Z,69.86
2018-01-14T02:14:17.777Z,70.05
2018-01-14T02:15:17.786Z,69.71
2018-01-14T02:16:17.762Z,69.77
2018-01-14T02:17:17.761Z,69.67
2018-01-14T02:18:17.781Z,69.77
2018-01-14T02:19:17.783Z,70.15
2018-01-14T02:20:17.538Z,69.96
2018-01-14T02:21:17.847Z,70.15
2018-01-14T02:22:17.827Z,70.24
2018-01-14T02:23:17.547Z,70.05
2018-01-14T02:24:17.867Z,70.18
2018-01-14T02:25:17.581Z,70.34
2018-01-14T02:26:17.898Z,70.43
2018-01-14T02:27:17.740Z,70.18
2018-01-14T02:28:17.621Z,70.15
2018-01-14T02:29:17.901Z,70.43
2018-01-14T02:30:17.641Z,70.65
2018-01-14T02:31:17.928Z,70.43
2018-01-14T02:32:17.916Z,70.56
2018-01-14T02:33:17.975Z,70.9
2018-01-14T02:34:17.971Z,70.9
2018-01-14T02:35:17.986Z,70.9
2018-01-14T02:36:17.956Z,70.84
2018-01-14T02:37:17.981Z,70.94
2018-01-14T02:38:17.975Z,71.09
2018-01-14T02:39:18.039Z,70.24
2018-01-14T02:40:17.720Z,69.96
2018-01-14T02:41:17.754Z,70.24
2018-01-14T02:42:18.036Z,70.05
2018-01-14T02:43:17.774Z,70.24
2018-01-14T02:44:18.049Z,70.43
2018-01-14T02:45:18.233Z,70.15
2018-01-14T02:46:18.106Z,70.53
2018-01-14T02:47:17.827Z,70.24
2018-01-14T02:48:18.089Z,70.05
2018-01-14T02:49:17.844Z,69.96
2018-01-14T02:50:17.843Z,70.15
2018-01-14T02:51:17.866Z,70.34
2018-01-14T02:52:17.873Z,69.77
2018-01-14T02:53:18.160Z,70.24
2018-01-14T02:54:18.141Z,70.05
2018-01-14T02:55:18.364Z,70.05
2018-01-14T02:56:18.175Z,69.96
2018-01-14T02:57:18.092Z,70.05
2018-01-14T02:58:18.183Z,69.96
2018-01-14T02:59:18.222Z,70.24
2018-01-14T03:00:18.198Z,70.43
2018-01-14T03:01:18.253Z,70.24
2018-01-14T03:02:18.006Z,70.34
2018-01-14T03:03:17.965Z,70.62
2018-01-14T03:04:18.249Z,70.15
2018-01-14T03:05:18.258Z,70.34
2018-01-14T03:06:18.256Z,70.24
2018-01-14T03:07:18.177Z,69.86
2018-01-14T03:08:18.036Z,69.96
2018-01-14T03:09:18.024Z,69.77
2018-01-14T03:10:18.056Z,70.15
2018-01-14T03:11:18.358Z,70.24
2018-01-14T03:12:18.348Z,70.34
2018-01-14T03:13:18.338Z,70.53
2018-01-14T03:14:18.096Z,70.43
2018-01-14T03:15:18.073Z,70.24
2018-01-14T03:16:18.358Z,70.62
2018-01-14T03:17:18.114Z,70.24
2018-01-14T03:18:18.104Z,70.43
2018-01-14T03:19:18.400Z,70.53
2018-01-14T03:20:18.398Z,70.43
2018-01-14T03:21:18.412Z,70.62
2018-01-14T03:22:18.466Z,70.15
2018-01-14T03:23:18.428Z,70.43
2018-01-14T03:24:18.196Z,70.62
2018-01-14T03:25:18.189Z,70.34
2018-01-14T03:26:18.461Z,70.34
2018-01-14T03:27:18.217Z,70.43
2018-01-14T03:28:18.481Z,70.72
2018-01-14T03:29:18.215Z,70.34
2018-01-14T03:30:18.518Z,70.34
2018-01-14T03:31:18.544Z,70.24
2018-01-14T03:32:18.255Z,70.24
2018-01-14T03:33:18.572Z,70.53
2018-01-14T03:34:18.581Z,70.34
2018-01-14T03:35:18.312Z,71
2018-01-14T03:36:18.571Z,71
2018-01-14T03:37:18.603Z,71
2018-01-14T03:38:18.340Z,71.09
2018-01-14T03:39:18.338Z,71
2018-01-14T03:40:18.648Z,70.9
2018-01-14T03:41:18.358Z,70.62
2018-01-14T03:42:18.367Z,69.86
2018-01-14T03:43:18.376Z,69.77
2018-01-14T03:44:18.641Z,69.96
2018-01-14T03:45:18.654Z,69.96
2018-01-14T03:46:18.661Z,69.96
2018-01-14T03:47:18.680Z,70.15
2018-01-14T03:48:18.680Z,70.34
2018-01-14T03:49:18.735Z,70.43
2018-01-14T03:50:18.447Z,70.62
2018-01-14T03:51:18.755Z,70.43
2018-01-14T03:52:18.761Z,70.53
2018-01-14T03:53:18.465Z,70.43
2018-01-14T03:54:18.740Z,70.24
2018-01-14T03:55:18.626Z,71
2018-01-14T03:56:18.793Z,70.9
2018-01-14T03:57:18.787Z,70.9
2018-01-14T03:58:18.781Z,70.9
2018-01-14T03:59:18.535Z,70.9
2018-01-14T04:00:18.547Z,70.81
2018-01-14T04:01:18.566Z,70.53
2018-01-14T04:02:18.555Z,70.81
2018-01-14T04:03:18.833Z,71
2018-01-14T04:04:18.609Z,71
2018-01-14T04:05:18.594Z,70.9
2018-01-14T04:06:18.863Z,70.81
2018-01-14T04:07:18.872Z,70.9
2018-01-14T04:08:18.605Z,71
2018-01-14T04:09:18.890Z,70.81
2018-01-14T04:10:18.935Z,70.72
2018-01-14T04:11:18.942Z,70.62
2018-01-14T04:12:18.654Z,71.38
2018-01-14T04:13:18.686Z,71.38
2018-01-14T04:14:18.662Z,71.19
2018-01-14T04:15:18.949Z,71.28
2018-01-14T04:16:18.957Z,71.47
2018-01-14T04:17:18.966Z,71.38
2018-01-14T04:18:18.978Z,71.47
2018-01-14T04:19:19.019Z,71.28
2018-01-14T04:20:19.000Z,71.28
2018-01-14T04:21:18.752Z,71.38
2018-01-14T04:22:18.755Z,71.57
2018-01-14T04:23:18.814Z,70.9
2018-01-14T04:24:18.776Z,71.28
2018-01-14T04:25:19.052Z,71.38
2018-01-14T04:26:18.812Z,71.38
2018-01-14T04:27:19.108Z,71.38
2018-01-14T04:28:18.801Z,71.38
2018-01-14T04:29:19.123Z,71
2018-01-14T04:30:19.138Z,71.28
2018-01-14T04:31:19.144Z,71.38
2018-01-14T04:32:19.151Z,71
2018-01-14T04:33:19.178Z,71.09
2018-01-14T04:34:19.148Z,71.38
2018-01-14T04:35:19.143Z,71.47
2018-01-14T04:36:19.165Z,70.9
2018-01-14T04:37:19.211Z,71.38
2018-01-14T04:38:18.921Z,71.09
2018-01-14T04:39:19.230Z,70.72
2018-01-14T04:40:18.930Z,70.9
2018-01-14T04:41:18.968Z,70.81
2018-01-14T04:42:19.228Z,70.81
2018-01-14T04:43:19.111Z,70.81
2018-01-14T04:44:19.245Z,70.72
2018-01-14T04:45:18.989Z,70.53
2018-01-14T04:46:19.256Z,71.09
2018-01-14T04:47:18.987Z,71.28
2018-01-14T04:48:19.334Z,70.9
2018-01-14T04:49:19.282Z,70.62
2018-01-14T04:50:19.050Z,70.53
2018-01-14T04:51:19.047Z,70.9
2018-01-14T04:52:19.068Z,70.53
2018-01-14T04:53:19.321Z,70.62
2018-01-14T04:54:19.376Z,70.9
2018-01-14T04:55:19.100Z,70.81
2018-01-14T04:56:19.113Z,71.19
2018-01-14T04:57:19.402Z,70.72
2018-01-14T04:58:19.402Z,71.38
2018-01-14T04:59:19.413Z,71.47
2018-01-14T05:00:19.392Z,71
2018-01-14T05:01:19.124Z,71.09
2018-01-14T05:02:19.446Z,71.28
2018-01-14T05:03:19.177Z,71.19
2018-01-14T05:04:19.167Z,71.38
2018-01-14T05:05:19.439Z,71.19
2018-01-14T05:06:19.478Z,71.19
2018-01-14T05:07:19.217Z,70.9
2018-01-14T05:08:19.473Z,71.19
2018-01-14T05:09:19.203Z,71.19
2018-01-14T05:10:19.247Z,71.19
2018-01-14T05:11:19.560Z,71
2018-01-14T05:12:19.510Z,71
2018-01-14T05:13:19.313Z,71.09
2018-01-14T05:14:19.254Z,71.19
2018-01-14T05:15:19.539Z,71.09
2018-01-14T05:16:19.591Z,71.28
2018-01-14T05:17:19.303Z,70.9
2018-01-14T05:18:19.453Z,71.09
2018-01-14T05:19:19.322Z,70.9
2018-01-14T05:20:19.311Z,70.97
2018-01-14T05:21:19.673Z,70.81
2018-01-14T05:22:19.738Z,70.81
2018-01-14T05:23:19.372Z,71
2018-01-14T05:24:19.661Z,70.97
2018-01-14T05:25:19.360Z,71
2018-01-14T05:26:19.655Z,70.87
2018-01-14T05:27:19.379Z,70.78
2018-01-14T05:28:19.663Z,70.58
2018-01-14T05:29:19.432Z,71.38
2018-01-14T05:30:19.714Z,71.15
2018-01-14T05:31:19.725Z,71.44
2018-01-14T05:32:19.738Z,71.25
2018-01-14T05:33:19.760Z,71.15
2018-01-14T05:34:19.479Z,70.97
2018-01-14T05:35:19.743Z,71.15
2018-01-14T05:36:19.787Z,71.15
2018-01-14T05:37:19.873Z,71.15
2018-01-14T05:38:19.874Z,71.15
2018-01-14T05:39:19.507Z,71.62
2018-01-14T05:40:19.520Z,71.25
2018-01-14T05:41:19.836Z,71.15
2018-01-14T05:42:19.806Z,71.15
2018-01-14T05:43:19.557Z,71.44
2018-01-14T05:44:19.566Z,71.34
2018-01-14T05:45:19.590Z,71.25
2018-01-14T05:46:19.588Z,70.97
2018-01-14T05:47:19.890Z,71.06
2018-01-14T05:48:19.918Z,70.97
2018-01-14T05:49:19.594Z,71.53
2018-01-14T05:50:19.633Z,71.81
2018-01-14T05:51:19.939Z,71.34
2018-01-14T05:52:19.920Z,71.34
2018-01-14T05:53:19.990Z,71.15
2018-01-14T05:54:19.654Z,71.06
2018-01-14T05:55:19.687Z,70.87
2018-01-14T05:56:19.946Z,71.25
2018-01-14T05:57:19.975Z,71.25
2018-01-14T05:58:19.852Z,71.34
2018-01-14T05:59:19.726Z,71.15
2018-01-14T06:00:19.711Z,71.44
2018-01-14T06:01:20.026Z,70.68
2018-01-14T06:02:19.730Z,71.15
2018-01-14T06:03:20.045Z,70.39
2018-01-14T06:04:19.766Z,70.2
2018-01-14T06:05:19.807Z,70.39
2018-01-14T06:06:19.758Z,70.11
2018-01-14T06:07:20.232Z,70.2
2018-01-14T06:08:20.317Z,70.87
2018-01-14T06:09:20.060Z,70.68
2018-01-14T06:10:20.072Z,70.68
2018-01-14T06:11:19.815Z,71.06
2018-01-14T06:12:19.832Z,70.97
2018-01-14T06:13:20.146Z,71.25
2018-01-14T06:14:20.107Z,71.34
2018-01-14T06:15:20.152Z,71.44
2018-01-14T06:16:20.142Z,71.06
2018-01-14T06:17:20.201Z,71.15
2018-01-14T06:18:19.881Z,71.34
2018-01-14T06:19:19.893Z,71.34
2018-01-14T06:20:19.890Z,71.15
2018-01-14T06:21:19.933Z,71.06
2018-01-14T06:22:20.185Z,71.34
2018-01-14T06:23:19.919Z,71.15
2018-01-14T06:24:20.215Z,71.44
2018-01-14T06:25:19.978Z,71.44
2018-01-14T06:26:19.949Z,71.34
2018-01-14T06:27:19.958Z,71.44
2018-01-14T06:28:20.242Z,71.25
2018-01-14T06:29:20.007Z,71.15
2018-01-14T06:30:19.987Z,71.34
2018-01-14T06:31:20.016Z,71.34
2018-01-14T06:32:20.017Z,70.97
2018-01-14T06:33:20.328Z,70.97
2018-01-14T06:34:20.301Z,71.34
2018-01-14T06:35:20.064Z,71.34
2018-01-14T06:36:20.042Z,71.44
2018-01-14T06:37:20.069Z,71.72
2018-01-14T06:38:20.350Z,71.72
2018-01-14T06:39:20.361Z,71.72
2018-01-14T06:40:20.386Z,71.91
2018-01-14T06:41:20.387Z,72
2018-01-14T06:42:20.375Z,72
2018-01-14T06:43:20.139Z,72
2018-01-14T06:44:20.117Z,71.91
2018-01-14T06:45:20.444Z,71.72
2018-01-14T06:46:20.426Z,71.62
2018-01-14T06:47:20.421Z,71.72
2018-01-14T06:48:20.478Z,71.91
2018-01-14T06:49:20.492Z,71.25
2018-01-14T06:50:20.449Z,71.06
2018-01-14T06:51:20.185Z,71.25
2018-01-14T06:52:20.193Z,71.53
2018-01-14T06:53:20.491Z,71.53
2018-01-14T06:54:20.535Z,71.62
2018-01-14T06:55:20.541Z,71.91
2018-01-14T06:56:20.549Z,71.81
2018-01-14T06:57:20.726Z,71.81
2018-01-14T06:58:20.557Z,71.53
2018-01-14T06:59:20.544Z,72.1
2018-01-14T07:00:20.278Z,72.48
2018-01-14T07:01:20.312Z,72.29
2018-01-14T07:02:20.459Z,72.38
2018-01-14T07:03:20.297Z,72.38
2018-01-14T07:04:20.623Z,72.48
2018-01-14T07:05:20.598Z,72.1
2018-01-14T07:06:20.620Z,72.48
2018-01-14T07:07:20.643Z,72.19
2018-01-14T07:08:20.618Z,72.77
2018-01-14T07:09:20.668Z,72.38
2018-01-14T07:10:20.683Z,72.48
2018-01-14T07:11:20.750Z,72.57
2018-01-14T07:12:20.699Z,72.38
2018-01-14T07:13:20.424Z,72.48
2018-01-14T07:14:20.754Z,72.67
2018-01-14T07:15:20.730Z,72.19
2018-01-14T07:16:20.436Z,72.57
2018-01-14T07:17:20.749Z,72.67
2018-01-14T07:18:20.449Z,72.48
2018-01-14T07:19:20.448Z,72.38
2018-01-14T07:20:20.771Z,72.77
2018-01-14T07:21:20.495Z,72.77
2018-01-14T07:22:20.505Z,72.48
2018-01-14T07:23:20.515Z,72.48
2018-01-14T07:24:20.553Z,72.77
2018-01-14T07:25:20.787Z,73.05
2018-01-14T07:26:20.572Z,72.86
2018-01-14T07:27:20.810Z,72.57
2018-01-14T07:28:20.561Z,72.57
2018-01-14T07:29:20.985Z,72.48
2018-01-14T07:30:20.572Z,72.57
2018-01-14T07:31:20.593Z,72.86
2018-01-14T07:32:20.840Z,72.77
2018-01-14T07:33:20.586Z,72.48
2018-01-14T07:34:20.642Z,72.96
2018-01-14T07:35:20.904Z,72.77
2018-01-14T07:36:20.926Z,73.14
2018-01-14T07:37:20.900Z,72.48
2018-01-14T07:38:20.934Z,72.96
2018-01-14T07:39:20.988Z,72.86
2018-01-14T07:40:20.642Z,72.77
2018-01-14T07:41:20.925Z,72.29
2018-01-14T07:42:20.681Z,72.67
2018-01-14T07:43:21.002Z,72.48
2018-01-14T07:44:20.690Z,72.57
2018-01-14T07:45:20.943Z,72.48
2018-01-14T07:46:20.984Z,72.48
2018-01-14T07:47:21.012Z,72.67
2018-01-14T07:48:21.026Z,72.86
2018-01-14T07:49:21.013Z,73.24
2018-01-14T07:50:20.734Z,72.86
2018-01-14T07:51:21.063Z,73.24
2018-01-14T07:52:21.029Z,73.05
2018-01-14T07:53:21.042Z,73.33
2018-01-14T07:54:20.798Z,72.86
2018-01-14T07:55:21.060Z,73.14
2018-01-14T07:56:20.809Z,73.14
2018-01-14T07:57:20.813Z,72.96
2018-01-14T07:58:21.125Z,72.77
2018-01-14T07:59:21.192Z,73.05
2018-01-14T08:00:20.839Z,73.14
2018-01-14T08:01:21.115Z,73.61
2018-01-14T08:02:21.121Z,73.71
2018-01-14T08:03:20.869Z,73.33
2018-01-14T08:04:21.200Z,73.52
2018-01-14T08:05:20.908Z,73.61
2018-01-14T08:06:20.920Z,73.61
2018-01-14T08:07:21.212Z,73.43
2018-01-14T08:08:20.936Z,73.24
2018-01-14T08:09:21.235Z,73.33
2018-01-14T08:10:21.206Z,73.24
2018-01-14T08:11:21.006Z,73.52
2018-01-14T08:12:21.215Z,73.52
2018-01-14T08:13:20.950Z,73.24
2018-01-14T08:14:21.243Z,73.43
2018-01-14T08:15:21.245Z,73.33
2018-01-14T08:16:21.011Z,73.61
2018-01-14T08:17:21.304Z,73.33
2018-01-14T08:18:21.303Z,73.43
2018-01-14T08:19:21.290Z,73.52
2018-01-14T08:20:21.335Z,73.61
2018-01-14T08:21:21.025Z,73.33
2018-01-14T08:22:21.064Z,73.33
2018-01-14T08:23:21.054Z,73.61
2018-01-14T08:24:21.374Z,73.52
2018-01-14T08:25:21.088Z,73.43
2018-01-14T08:26:21.388Z,73.52
2018-01-14T08:27:21.101Z,73.24
2018-01-14T08:28:21.365Z,73.33
2018-01-14T08:29:21.543Z,73.33
2018-01-14T08:30:21.107Z,73.33
2018-01-14T08:31:21.129Z,73.24
2018-01-14T08:32:21.154Z,73.24
2018-01-14T08:33:21.455Z,73.33
2018-01-14T08:34:21.155Z,73.14
2018-01-14T08:35:21.464Z,73.52
2018-01-14T08:36:21.166Z,73.52
2018-01-14T08:37:21.450Z,73.52
2018-01-14T08:38:21.502Z,73.52
2018-01-14T08:39:21.227Z,73.71
2018-01-14T08:40:21.234Z,73.33
2018-01-14T08:41:21.221Z,73.24
2018-01-14T08:42:21.252Z,73.33
2018-01-14T08:43:21.240Z,73.43
2018-01-14T08:44:21.559Z,73.61
2018-01-14T08:45:21.542Z,73.71
2018-01-14T08:46:21.279Z,73.52
2018-01-14T08:47:21.545Z,73.61
2018-01-14T08:48:21.596Z,73.52
2018-01-14T08:49:21.299Z,73.61
2018-01-14T08:50:21.573Z,73.65
2018-01-14T08:51:21.625Z,73.52
2018-01-14T08:52:21.633Z,73.37
2018-01-14T08:53:21.330Z,73.43
2018-01-14T08:54:21.612Z,73.75
2018-01-14T08:55:21.888Z,73.56
2018-01-14T08:56:21.658Z,73.56
2018-01-14T08:57:21.675Z,73.27
2018-01-14T08:58:21.678Z,73.18
2018-01-14T08:59:21.666Z,73.46
2018-01-14T09:00:21.392Z,72.89
2018-01-14T09:01:21.677Z,73.14
2018-01-14T09:02:21.420Z,73.56
2018-01-14T09:03:21.440Z,73.65
2018-01-14T09:04:21.713Z,73.65
2018-01-14T09:05:21.723Z,73.56
2018-01-14T09:06:21.721Z,73.56
2018-01-14T09:07:21.741Z,73.84
2018-01-14T09:08:21.742Z,73.46
2018-01-14T09:09:21.490Z,73.75
2018-01-14T09:10:21.792Z,73.56
2018-01-14T09:11:21.785Z,73.46
2018-01-14T09:12:21.780Z,73.37
2018-01-14T09:13:21.793Z,73.75
2018-01-14T09:14:21.809Z,73.65
2018-01-14T09:15:21.714Z,73.65
2018-01-14T09:16:21.867Z,73.94
2018-01-14T09:17:21.868Z,73.84
2018-01-14T09:18:21.880Z,73.75
2018-01-14T09:19:21.890Z,73.65
2018-01-14T09:20:21.889Z,73.46
2018-01-14T09:21:21.615Z,73.65
2018-01-14T09:22:21.877Z,73.46
2018-01-14T09:23:21.932Z,73.37
2018-01-14T09:24:21.909Z,73.46
2018-01-14T09:25:21.940Z,73.56
2018-01-14T09:26:21.938Z,73.65
2018-01-14T09:27:21.658Z,73.65
2018-01-14T09:28:21.932Z,73.46
2018-01-14T09:29:21.942Z,73.18
2018-01-14T09:30:22.032Z,72.89
2018-01-14T09:31:21.698Z,73.46
2018-01-14T09:32:21.728Z,72.99
2018-01-14T09:33:21.991Z,72.99
2018-01-14T09:34:21.715Z,73.08
2018-01-14T09:35:22.003Z,73.46
2018-01-14T09:36:22.050Z,73.46
2018-01-14T09:37:22.067Z,73.37
2018-01-14T09:38:21.754Z,72.89
2018-01-14T09:39:22.037Z,72.89
2018-01-14T09:40:21.849Z,73.18
2018-01-14T09:41:22.057Z,73.08
2018-01-14T09:42:22.103Z,73.27
2018-01-14T09:43:21.813Z,73.18
2018-01-14T09:44:22.130Z,73.18
2018-01-14T09:45:22.131Z,72.89
2018-01-14T09:46:22.148Z,72.61
2018-01-14T09:47:21.851Z,72.42
2018-01-14T09:48:21.883Z,72.42
2018-01-14T09:49:21.881Z,72.45
2018-01-14T09:50:22.151Z,72.42
2018-01-14T09:51:22.188Z,72.42
2018-01-14T09:52:21.913Z,72.33
2018-01-14T09:53:21.909Z,71.76
2018-01-14T09:54:22.215Z,71.66
2018-01-14T09:55:21.950Z,71.7
2018-01-14T09:56:22.291Z,71.98
2018-01-14T09:57:22.249Z,71.98
2018-01-14T09:58:21.958Z,72.08
2018-01-14T09:59:22.192Z,72.08
2018-01-14T10:00:21.981Z,71.98
2018-01-14T10:01:21.981Z,71.89
2018-01-14T10:02:22.284Z,71.98
2018-01-14T10:03:22.279Z,71.89
2018-01-14T10:04:22.007Z,71.89
2018-01-14T10:05:22.039Z,71.7
2018-01-14T10:06:22.059Z,71.8
2018-01-14T10:07:22.069Z,72.17
2018-01-14T10:08:22.047Z,72.17
2018-01-14T10:09:22.398Z,71.8
2018-01-14T10:10:22.076Z,71.89
2018-01-14T10:11:22.109Z,71.7
2018-01-14T10:12:22.371Z,71.7
2018-01-14T10:13:22.474Z,71.89
2018-01-14T10:14:22.109Z,72.27
2018-01-14T10:15:22.136Z,71.8
2018-01-14T10:16:22.401Z,71.51
2018-01-14T10:17:22.135Z,71.6
2018-01-14T10:18:22.147Z,71.8
2018-01-14T10:19:22.169Z,71.8
2018-01-14T10:20:22.186Z,72.08
2018-01-14T10:21:22.458Z,72.17
2018-01-14T10:22:22.461Z,71.51
2018-01-14T10:23:22.481Z,71.7
2018-01-14T10:24:22.495Z,71.41
2018-01-14T10:25:22.503Z,71.51
2018-01-14T10:26:22.285Z,71.51
2018-01-14T10:27:22.520Z,71.03
2018-01-14T10:28:22.524Z,71.22
2018-01-14T10:29:22.266Z,71.22
2018-01-14T10:30:22.286Z,71.32
2018-01-14T10:31:22.276Z,71.03
2018-01-14T10:32:22.315Z,71.32
2018-01-14T10:33:22.295Z,71.22
2018-01-14T10:34:22.339Z,70.94
2018-01-14T10:35:22.589Z,71.32
2018-01-14T10:36:22.640Z,70.94
2018-01-14T10:37:22.644Z,70.56
2018-01-14T10:38:22.377Z,71.07
2018-01-14T10:39:22.647Z,70.98
2018-01-14T10:40:22.388Z,70.98
2018-01-14T10:41:22.401Z,70.88
2018-01-14T10:42:22.701Z,70.98
2018-01-14T10:43:22.670Z,70.98
2018-01-14T10:44:22.683Z,70.69
2018-01-14T10:45:22.415Z,70.59
2018-01-14T10:46:22.760Z,71.26
2018-01-14T10:47:22.743Z,70.4
2018-01-14T10:48:22.467Z,70.59
2018-01-14T10:49:22.765Z,70.69
2018-01-14T10:50:22.774Z,70.69
2018-01-14T10:51:22.753Z,70.31
2018-01-14T10:52:22.504Z,70.03
2018-01-14T10:53:22.497Z,70.21
2018-01-14T10:54:22.510Z,70.03
2018-01-14T10:55:22.634Z,69.74
2018-01-14T10:56:22.528Z,70.03
2018-01-14T10:57:22.571Z,69.74
2018-01-14T10:58:22.561Z,70.03
2018-01-14T10:59:22.584Z,70.03
2018-01-14T11:00:22.591Z,69.93
2018-01-14T11:01:22.897Z,69.65
2018-01-14T11:02:22.611Z,70.03
2018-01-14T11:03:22.656Z,70.31
2018-01-14T11:04:22.929Z,70.12
2018-01-14T11:05:22.899Z,70.12
2018-01-14T11:06:22.951Z,70.21
2018-01-14T11:07:22.673Z,70.21
2018-01-14T11:08:22.677Z,70.59
2018-01-14T11:09:22.982Z,70.69
2018-01-14T11:10:22.704Z,70.5
2018-01-14T11:11:22.959Z,70.5
2018-01-14T11:12:22.694Z,70.5
2018-01-14T11:13:22.983Z,70.44
2018-01-14T11:14:23.035Z,70.54
2018-01-14T11:15:22.761Z,70.54
2018-01-14T11:16:22.747Z,70.35
2018-01-14T11:17:23.024Z,70.44
2018-01-14T11:18:23.051Z,70.15
2018-01-14T11:19:23.044Z,70.54
2018-01-14T11:20:22.801Z,70.35
2018-01-14T11:21:22.812Z,70.35
2018-01-14T11:22:23.121Z,69.96
2018-01-14T11:23:22.847Z,70.06
2018-01-14T11:24:23.132Z,69.78
2018-01-14T11:25:23.108Z,69.49
2018-01-14T11:26:23.160Z,69.4
2018-01-14T11:27:23.142Z,69.49
2018-01-14T11:28:22.906Z,69.3
2018-01-14T11:29:22.897Z,69.02
2018-01-14T11:30:22.918Z,69.21
2018-01-14T11:31:23.306Z,68.73
2018-01-14T11:32:23.217Z,68.92
2018-01-14T11:33:23.197Z,68.83
2018-01-14T11:34:22.952Z,68.64
2018-01-14T11:35:23.216Z,68.35
2018-01-14T11:36:22.950Z,68.35
2018-01-14T11:37:22.972Z,68.54
2018-01-14T11:38:23.289Z,68.64
2018-01-14T11:39:23.266Z,67.97
2018-01-14T11:40:23.315Z,67.69
2018-01-14T11:41:23.283Z,67.59
2018-01-14T11:42:23.334Z,67.31
2018-01-14T11:43:23.038Z,67.31
2018-01-14T11:44:23.049Z,67.4
2018-01-14T11:45:23.324Z,67.31
2018-01-14T11:46:23.337Z,67.4
2018-01-14T11:47:23.072Z,67.5
2018-01-14T11:48:23.399Z,67.4
2018-01-14T11:49:23.398Z,67.59
2018-01-14T11:50:23.410Z,67.5
2018-01-14T11:51:23.431Z,67.4
2018-01-14T11:52:23.400Z,67.12
2018-01-14T11:53:23.452Z,67.63
2018-01-14T11:54:23.470Z,67.5
2018-01-14T11:55:23.192Z,67.44
2018-01-14T11:56:23.445Z,67.12
2018-01-14T11:57:23.467Z,66.93
2018-01-14T11:58:23.481Z,66.93
2018-01-14T11:59:23.491Z,66.93
2018-01-14T12:00:23.495Z,66.93
2018-01-14T12:01:23.533Z,66.77
2018-01-14T12:02:23.543Z,67.34
2018-01-14T12:03:23.532Z,66.39
2018-01-14T12:04:23.269Z,66.58
2018-01-14T12:05:23.576Z,66.77
2018-01-14T12:06:23.614Z,66.39
2018-01-14T12:07:23.610Z,65.63
2018-01-14T12:08:23.314Z,65.25
2018-01-14T12:09:23.633Z,65.16
2018-01-14T12:10:23.632Z,65.44
2018-01-14T12:11:23.657Z,65.06
2018-01-14T12:12:23.653Z,64.97
2018-01-14T12:13:23.680Z,65.73
2018-01-14T12:14:23.392Z,64.78
2018-01-14T12:15:23.667Z,64.87
2018-01-14T12:16:23.710Z,65.16
2018-01-14T12:17:23.715Z,64.97
2018-01-14T12:18:23.416Z,65.44
2018-01-14T12:19:23.703Z,65.44
2018-01-14T12:20:23.462Z,65.54
2018-01-14T12:21:23.481Z,65.44
2018-01-14T12:22:23.736Z,65.54
2018-01-14T12:23:23.789Z,65.73
2018-01-14T12:24:23.804Z,65.35
2018-01-14T12:25:23.517Z,64.97
2018-01-14T12:26:23.517Z,64.97
2018-01-14T12:27:23.848Z,64.87
2018-01-14T12:28:23.857Z,65.06
2018-01-14T12:29:23.848Z,65.25
2018-01-14T12:30:23.870Z,65.06
2018-01-14T12:31:23.586Z,64.69
2018-01-14T12:32:23.883Z,64.78
2018-01-14T12:33:23.901Z,64.97
2018-01-14T12:34:23.918Z,64.78
2018-01-14T12:35:23.640Z,64.97
2018-01-14T12:36:23.908Z,64.78
2018-01-14T12:37:23.654Z,64.87
2018-01-14T12:38:23.951Z,65.35
2018-01-14T12:39:23.972Z,65.06
2018-01-14T12:40:23.688Z,64.87
2018-01-14T12:41:23.965Z,64.49
2018-01-14T12:42:23.720Z,64.3
2018-01-14T12:43:23.725Z,63.92
2018-01-14T12:44:23.713Z,64.49
2018-01-14T12:45:24.029Z,63.83
2018-01-14T12:46:24.057Z,64.49
2018-01-14T12:47:24.025Z,64.4
2018-01-14T12:48:23.781Z,64.69
2018-01-14T12:49:24.095Z,64.87
2018-01-14T12:50:23.793Z,65.44
2018-01-14T12:51:23.809Z,65.44
2018-01-14T12:52:23.829Z,65.25
2018-01-14T12:53:24.095Z,64.97
2018-01-14T12:54:24.147Z,64.87
2018-01-14T12:55:24.090Z,65.16
2018-01-14T12:56:23.885Z,64.69
2018-01-14T12:57:23.934Z,65.06